Time;durP1;ratioP1;P1;durP2;ratioP2;P2;SDS_P1;SDS_P2;PMS_P1;PMS_P2;Temp;Humidity;BMP_temperature;BMP_pressure;BME280_temperature;BME280_humidity;BME280_pressure;Samples;Min_cycle;Max_cycle;Signal;HPM_P1;HPM_P2
2023/07/31 00:01:49;;;;;;;9.25;6.30;;;;;;;28.90;63.82;100783.78;5057103;28;67495;-38
2023/07/31 00:04:39;;;;;;;6.63;5.97;;;;;;;28.93;64.15;100788.75;5059298;28;71285;-37
2023/07/31 00:07:29;;;;;;;7.70;6.55;;;;;;;28.98;69.36;100779.19;5057537;28;67422;-38
2023/07/31 00:10:19;;;;;;;14.52;7.45;;;;;;;29.03;71.45;100787.47;5057204;28;70023;-37
2023/07/31 00:13:10;;;;;;;11.90;7.88;;;;;;;29.11;72.76;100790.00;5059678;28;67777;-39
2023/07/31 00:16:00;;;;;;;9.77;7.90;;;;;;;29.20;76.59;100787.91;5058568;28;70730;-37
2023/07/31 00:18:50;;;;;;;10.23;9.18;;;;;;;29.34;79.54;100794.94;5057042;28;66580;-41
2023/07/31 00:21:40;;;;;;;15.02;10.55;;;;;;;29.37;80.95;100791.81;5057746;28;70598;-39
2023/07/31 00:24:30;;;;;;;21.70;10.95;;;;;;;29.43;81.41;100798.25;5054797;28;67458;-40
2023/07/31 00:27:20;;;;;;;20.02;11.63;;;;;;;29.36;78.14;100782.03;5055183;28;70481;-39
2023/07/31 00:30:11;;;;;;;13.75;11.18;;;;;;;29.51;80.30;100806.94;5059165;28;67522;-38
2023/07/31 00:33:02;;;;;;;15.05;10.15;;;;;;;29.53;81.11;100826.50;5055460;28;70546;-40
2023/07/31 00:35:52;;;;;;;15.02;10.02;;;;;;;29.53;80.08;100807.56;5055447;28;67649;-38
2023/07/31 00:38:42;;;;;;;19.73;10.05;;;;;;;29.61;78.03;100810.03;5053235;28;71223;-38
2023/07/31 00:41:32;;;;;;;14.75;10.48;;;;;;;29.66;78.55;100820.22;5054294;28;67209;-40
2023/07/31 00:44:22;;;;;;;14.15;10.43;;;;;;;29.64;80.32;100811.50;5054823;28;70179;-39
2023/07/31 00:47:14;;;;;;;14.52;10.82;;;;;;;29.79;74.43;100820.19;5055980;28;67344;-40
2023/07/31 00:50:04;;;;;;;10.18;8.73;;;;;;;29.84;73.41;100828.50;5056089;28;71181;-39
2023/07/31 00:52:54;;;;;;;11.75;8.57;;;;;;;29.81;72.89;100812.69;5052179;28;67294;-41
2023/07/31 00:55:45;;;;;;;16.27;9.50;;;;;;;29.94;72.33;100832.59;5059705;28;71290;-39
2023/07/31 00:58:36;;;;;;;9.20;8.40;;;;;;;29.91;72.20;100816.81;5055485;28;67847;-40
2023/07/31 01:01:26;;;;;;;9.20;8.50;;;;;;;29.99;71.77;100824.69;5053239;28;71180;-40
2023/07/31 01:04:18;;;;;;;15.37;8.87;;;;;;;29.43;71.69;100738.81;5052707;28;67319;-39
2023/07/31 01:07:12;;;;;;;10.65;8.55;;;;;;;30.02;71.35;100835.88;5053072;28;71031;-41
2023/07/31 01:10:11;;;;;;;8.82;8.13;;;;;;;30.05;71.36;100837.31;5041958;28;67302;-41
2023/07/31 01:13:03;;;;;;;7.97;7.28;;;;;;;30.07;71.31;100843.34;5040571;28;71161;-39
2023/07/31 01:15:53;;;;;;;8.63;7.80;;;;;;;29.98;70.79;100825.72;5041595;28;66530;-40
2023/07/31 01:18:43;;;;;;;8.02;7.32;;;;;;;30.10;70.73;100848.34;5053513;28;70312;-40
2023/07/31 01:21:36;;;;;;;10.15;7.55;;;;;;;30.13;70.82;100850.59;5053180;28;67247;-42
2023/07/31 01:24:36;;;;;;;8.00;7.20;;;;;;;30.15;70.69;100853.94;5049415;28;71150;-41
2023/07/31 01:27:35;;;;;;;7.30;6.72;;;;;;;30.12;70.33;100857.06;5056653;28;67212;-40
2023/07/31 01:30:35;;;;;;;8.20;7.32;;;;;;;29.67;70.16;100789.47;5057556;28;70163;-41
2023/07/31 01:33:26;;;;;;;5.80;5.35;;;;;;;30.10;70.06;100853.75;5060139;28;67249;-40
2023/07/31 01:36:16;;;;;;;7.22;6.50;;;;;;;30.21;69.96;100877.41;5036107;28;70469;-44
2023/07/31 01:39:08;;;;;;;7.95;6.57;;;;;;;30.17;69.66;100864.53;5058665;28;68211;-43
2023/07/31 01:41:58;;;;;;;9.18;6.07;;;;;;;30.26;69.98;100888.44;5067336;28;71095;-41
2023/07/31 01:44:49;;;;;;;7.05;6.53;;;;;;;30.27;69.59;100887.41;5055842;28;67358;-39
2023/07/31 01:47:40;;;;;;;6.68;6.13;;;;;;;30.26;69.53;100885.75;5056862;28;71162;-42
2023/07/31 01:50:32;;;;;;;7.07;6.47;;;;;;;29.83;69.46;100826.81;5072196;28;66802;-40
2023/07/31 01:53:22;;;;;;;6.65;5.97;;;;;;;30.31;69.07;100889.66;5060753;28;70351;-43
2023/07/31 01:56:12;;;;;;;6.93;6.05;;;;;;;30.18;69.33;100872.44;5058390;28;67323;-41
2023/07/31 01:59:02;;;;;;;9.88;5.93;;;;;;;30.31;69.05;100882.38;5057635;28;71107;-40
2023/07/31 02:01:53;;;;;;;6.70;6.13;;;;;;;30.37;69.44;100888.78;5056579;28;67311;-39
2023/07/31 02:04:43;;;;;;;7.22;6.47;;;;;;;30.38;69.36;100896.72;5057858;28;71133;-39
2023/07/31 02:07:34;;;;;;;6.20;5.57;;;;;;;30.39;69.04;100889.41;5052492;28;66662;-40
2023/07/31 02:10:24;;;;;;;5.97;5.55;;;;;;;30.34;69.15;100883.81;5057290;28;72242;-40
2023/07/31 02:13:14;;;;;;;6.43;5.88;;;;;;;30.40;68.62;100891.09;5059247;28;67247;-40
2023/07/31 02:16:04;;;;;;;7.25;5.47;;;;;;;30.34;68.78;100870.28;5056775;28;70373;-39
2023/07/31 02:18:54;;;;;;;6.45;5.60;;;;;;;30.44;68.41;100889.59;5052762;28;67249;-40
2023/07/31 02:21:46;;;;;;;5.88;5.38;;;;;;;30.49;69.04;100889.78;5050644;28;70566;-40
2023/07/31 02:24:36;;;;;;;5.70;5.20;;;;;;;30.54;69.10;100889.16;5054185;28;66408;-40
2023/07/31 02:27:27;;;;;;;5.95;5.35;;;;;;;30.55;68.77;100880.78;5052297;28;71124;-41
2023/07/31 02:30:17;;;;;;;5.85;5.15;;;;;;;30.57;68.93;100884.13;5049887;28;67223;-39
2023/07/31 02:33:07;;;;;;;7.65;5.65;;;;;;;30.56;68.73;100879.72;5055197;28;70105;-40
2023/07/31 02:35:57;;;;;;;4.95;4.65;;;;;;;30.59;68.62;100884.72;5053367;28;67312;-39
2023/07/31 02:38:47;;;;;;;6.90;4.90;;;;;;;30.18;68.31;100804.81;5054238;28;71154;-40
2023/07/31 02:41:38;;;;;;;5.65;4.55;;;;;;;30.65;68.29;100878.44;5053411;28;67218;-40
2023/07/31 02:44:28;;;;;;;4.95;4.28;;;;;;;30.67;68.70;100876.34;5045528;28;70361;-39
2023/07/31 02:47:18;;;;;;;5.00;4.60;;;;;;;30.58;68.19;100860.56;5056728;28;67223;-39
2023/07/31 02:50:09;;;;;;;5.13;4.43;;;;;;;30.71;68.36;100872.13;5057745;28;71226;-40
2023/07/31 02:52:59;;;;;;;4.68;4.13;;;;;;;30.29;68.41;100803.31;5057858;28;67383;-39
2023/07/31 02:55:49;;;;;;;5.22;4.00;;;;;;;30.77;68.05;100875.84;5065488;28;70518;-40
2023/07/31 02:58:39;;;;;;;6.10;4.50;;;;;;;30.79;68.22;100872.94;5056048;28;67267;-38
2023/07/31 03:01:29;;;;;;;4.10;3.80;;;;;;;30.61;68.82;100833.88;5056707;28;70241;-39
2023/07/31 03:04:20;;;;;;;6.90;4.32;;;;;;;30.85;68.66;100866.66;5058430;28;67314;-40
2023/07/31 03:07:10;;;;;;;4.60;3.70;;;;;;;30.85;68.73;100867.47;5057273;28;70656;-39
2023/07/31 03:10:01;;;;;;;4.43;3.90;;;;;;;30.89;69.30;100862.44;5040074;28;66401;-41
2023/07/31 03:12:51;;;;;;;4.00;3.58;;;;;;;30.89;68.66;100851.63;5055862;28;69970;-40
2023/07/31 03:15:44;;;;;;;3.60;2.83;;;;;;;30.94;69.00;100863.44;5050230;28;67079;-40
2023/07/31 03:18:34;;;;;;;5.28;3.35;;;;;;;30.95;68.91;100864.25;5050520;28;69638;-39
2023/07/31 03:21:24;;;;;;;4.05;3.75;;;;;;;30.99;68.96;100868.22;5048908;28;67415;-38
2023/07/31 03:24:14;;;;;;;3.58;3.28;;;;;;;31.02;68.95;100865.06;5051984;28;71192;-41
2023/07/31 03:27:05;;;;;;;3.47;3.17;;;;;;;31.00;68.91;100861.72;5052386;28;67177;-39
2023/07/31 03:30:00;;;;;;;3.38;3.03;;;;;;;31.06;69.08;100858.13;5050689;28;71141;-39
2023/07/31 03:32:51;;;;;;;4.05;3.63;;;;;;;30.99;68.78;100843.81;5051590;28;66562;-39
2023/07/31 03:35:41;;;;;;;6.07;3.42;;;;;;;31.11;68.93;100861.00;5060270;28;70627;-39
2023/07/31 03:38:31;;;;;;;3.30;3.08;;;;;;;31.13;68.53;100852.66;5060757;28;66845;-40
2023/07/31 03:41:21;;;;;;;3.92;3.33;;;;;;;31.09;68.72;100838.75;5060740;28;71257;-38
2023/07/31 03:44:12;;;;;;;3.83;3.53;;;;;;;31.16;68.72;100842.19;5049981;28;67353;-38
2023/07/31 03:47:02;;;;;;;3.45;3.15;;;;;;;31.18;68.77;100839.28;5062293;28;71188;-39
2023/07/31 03:49:52;;;;;;;5.72;3.30;;;;;;;31.20;68.43;100837.16;5061091;28;66589;-39
2023/07/31 03:52:43;;;;;;;3.67;3.20;;;;;;;31.15;68.60;100818.88;5058846;28;71267;-40
2023/07/31 03:55:33;;;;;;;4.25;3.85;;;;;;;31.25;68.66;100821.06;5061051;28;67455;-40
2023/07/31 03:58:23;;;;;;;4.05;3.65;;;;;;;31.27;68.64;100815.44;5060837;28;70479;-42
2023/07/31 04:01:13;;;;;;;4.15;3.22;;;;;;;31.28;68.29;100811.66;5059165;28;67515;-40
2023/07/31 04:04:03;;;;;;;4.72;3.13;;;;;;;31.29;68.68;100810.63;5061474;28;70335;-40
2023/07/31 04:06:54;;;;;;;3.60;3.25;;;;;;;31.29;68.51;100808.72;5052354;28;67411;-38
2023/07/31 04:09:44;;;;;;;5.97;3.75;;;;;;;31.15;68.73;100791.78;5058686;28;70762;-39
2023/07/31 04:12:35;;;;;;;3.30;3.00;;;;;;;31.34;68.85;100810.75;5053794;28;66604;-39
2023/07/31 04:15:25;;;;;;;3.38;3.10;;;;;;;31.31;68.66;100801.19;5052719;28;70461;-39
2023/07/31 04:18:15;;;;;;;5.03;3.35;;;;;;;31.38;68.75;100815.53;5055151;28;67700;-40
2023/07/31 04:21:05;;;;;;;3.72;3.42;;;;;;;31.39;68.47;100802.81;5050665;28;71033;-41
2023/07/31 04:23:56;;;;;;;3.70;3.35;;;;;;;31.41;68.33;100797.16;5046158;28;67167;-40
2023/07/31 04:26:45;;;;;;;3.55;3.25;;;;;;;31.40;68.23;100799.06;5058790;28;70820;-40
2023/07/31 04:29:35;;;;;;;6.07;3.65;;;;;;;31.45;68.47;100785.63;5051953;28;66761;-39
2023/07/31 04:32:25;;;;;;;3.42;3.10;;;;;;;31.49;68.39;100776.00;5049073;28;71564;-40
2023/07/31 04:35:16;;;;;;;4.05;3.42;;;;;;;31.52;68.29;100797.22;5056774;28;66582;-40
2023/07/31 04:38:05;;;;;;;3.65;3.13;;;;;;;31.55;68.30;100785.09;5048523;28;70373;-39
2023/07/31 04:40:56;;;;;;;5.93;3.28;;;;;;;31.56;68.22;100771.31;5041210;28;67309;-41
2023/07/31 04:43:46;;;;;;;4.07;3.33;;;;;;;31.61;68.24;100768.75;5058363;28;71465;-39
2023/07/31 04:46:37;;;;;;;5.05;2.70;;;;;;;31.64;68.16;100762.03;5059161;28;67371;-39
2023/07/31 04:49:27;;;;;;;3.55;3.25;;;;;;;31.65;68.13;100763.72;5060149;28;70723;-40
2023/07/31 04:52:17;;;;;;;3.20;3.00;;;;;;;31.67;67.87;100761.59;5049670;28;67364;-39
2023/07/31 04:55:07;;;;;;;6.65;3.55;;;;;;;31.69;68.06;100764.91;5060856;28;70723;-41
2023/07/31 04:58:00;;;;;;;3.55;3.03;;;;;;;31.16;67.96;100655.25;5057295;28;67514;-39
2023/07/31 05:00:50;;;;;;;3.17;2.88;;;;;;;31.65;68.13;100723.03;5053997;28;71129;-42
2023/07/31 05:03:40;;;;;;;3.22;2.70;;;;;;;31.66;67.97;100716.56;5059998;28;66708;-39
2023/07/31 05:06:31;;;;;;;5.78;2.95;;;;;;;31.77;68.09;100733.94;5057119;28;70102;-42
2023/07/31 05:09:21;;;;;;;6.22;2.47;;;;;;;31.79;68.23;100727.22;5056248;28;66477;-39
2023/07/31 05:12:12;;;;;;;3.33;3.03;;;;;;;31.74;68.04;100734.41;5050570;28;71199;-39
2023/07/31 05:15:02;;;;;;;3.53;2.90;;;;;;;31.83;67.84;100725.69;5048661;28;67321;-42
2023/07/31 05:17:52;;;;;;;3.78;2.85;;;;;;;31.86;67.80;100723.59;5057294;28;70477;-41
2023/07/31 05:20:43;;;;;;;3.22;2.92;;;;;;;31.87;68.11;100717.91;5057207;28;67317;-40
2023/07/31 05:23:33;;;;;;;7.53;2.85;;;;;;;31.73;67.77;100700.19;5057000;28;71127;-43
2023/07/31 05:26:23;;;;;;;3.47;2.83;;;;;;;31.51;67.70;100660.03;5053141;28;66453;-42
2023/07/31 05:29:13;;;;;;;3.50;3.15;;;;;;;31.88;67.87;100703.31;5055794;28;70441;-39
2023/07/31 05:32:04;;;;;;;3.88;2.40;;;;;;;31.96;67.53;100705.72;5050710;28;66598;-42
2023/07/31 05:34:54;;;;;;;2.90;2.70;;;;;;;31.93;67.86;100698.06;5058410;28;70070;-41
2023/07/31 05:37:45;;;;;;;5.55;3.25;;;;;;;31.87;67.33;100674.50;5058245;28;67661;-41
2023/07/31 05:40:35;;;;;;;3.88;2.70;;;;;;;32.05;67.38;100698.88;5054227;28;70402;-40
2023/07/31 05:43:25;;;;;;;3.30;2.90;;;;;;;31.50;67.35;100593.31;5055852;28;66532;-40
2023/07/31 05:46:15;;;;;;;6.28;2.97;;;;;;;32.08;67.33;100686.75;5053645;28;71050;-39
2023/07/31 05:49:06;;;;;;;3.67;3.20;;;;;;;32.11;67.28;100678.13;5045318;28;67563;-41
2023/07/31 05:51:56;;;;;;;4.68;2.63;;;;;;;32.13;67.16;100678.75;5054332;28;71159;-40
2023/07/31 05:54:46;;;;;;;4.72;3.00;;;;;;;32.10;67.04;100675.69;5047141;28;66892;-39
2023/07/31 05:57:36;;;;;;;3.67;2.90;;;;;;;32.05;67.12;100660.09;5048997;28;71168;-40
2023/07/31 06:00:27;;;;;;;3.00;2.35;;;;;;;32.16;66.99;100666.59;5057803;28;67191;-40
2023/07/31 06:03:17;;;;;;;4.60;2.42;;;;;;;32.21;66.84;100675.69;5053603;28;71396;-40
2023/07/31 06:06:07;;;;;;;3.22;2.92;;;;;;;31.74;66.88;100593.38;5059032;28;67283;-40
2023/07/31 06:08:57;;;;;;;3.67;2.95;;;;;;;32.27;66.76;100668.50;5052579;28;70332;-39
2023/07/31 06:11:47;;;;;;;3.35;2.80;;;;;;;32.29;66.78;100655.53;5057506;28;67205;-40
2023/07/31 06:14:38;;;;;;;7.85;2.80;;;;;;;32.35;66.60;100642.91;5058172;28;71273;-39
2023/07/31 06:17:29;;;;;;;3.65;2.80;;;;;;;32.37;66.54;100657.84;5057006;28;66399;-39
2023/07/31 06:20:19;;;;;;;3.22;2.83;;;;;;;32.28;66.53;100626.72;5051546;28;71066;-42
2023/07/31 06:23:10;;;;;;;3.15;2.85;;;;;;;32.45;66.41;100651.25;5059122;28;67778;-42
2023/07/31 06:26:00;;;;;;;4.32;3.05;;;;;;;32.32;66.14;100622.47;5044127;28;71142;-40
2023/07/31 06:28:50;;;;;;;3.67;2.63;;;;;;;32.41;66.13;100623.75;5056718;28;67299;-39
2023/07/31 06:31:41;;;;;;;7.65;3.05;;;;;;;32.00;66.14;100565.00;5043993;28;71194;-39
2023/07/31 06:34:31;;;;;;;3.28;2.97;;;;;;;32.58;66.15;100652.94;5050268;28;67278;-39
2023/07/31 06:37:22;;;;;;;2.92;2.60;;;;;;;32.56;65.80;100641.47;5056600;28;70297;-38
2023/07/31 06:40:12;;;;;;;4.30;3.40;;;;;;;32.62;66.11;100644.06;5051750;28;67330;-41
2023/07/31 06:43:07;;;;;;;3.75;2.95;;;;;;;32.67;65.93;100640.63;5051563;28;71066;-39
2023/07/31 06:45:57;;;;;;;3.60;2.80;;;;;;;32.62;66.33;100621.50;5054849;28;67409;-41
2023/07/31 06:48:48;;;;;;;3.60;2.85;;;;;;;32.61;65.70;100609.00;5053701;28;70676;-40
2023/07/31 06:51:38;;;;;;;3.50;2.80;;;;;;;32.77;65.65;100638.16;5047099;28;67875;-41
2023/07/31 06:54:28;;;;;;;4.75;2.97;;;;;;;32.76;65.72;100622.91;5054924;28;71165;-40
2023/07/31 06:57:18;;;;;;;8.63;3.05;;;;;;;32.40;65.81;100581.41;5056697;28;66628;-40
2023/07/31 07:00:09;;;;;;;6.28;3.15;;;;;;;32.84;65.50;100630.69;5046897;28;70603;-41
2023/07/31 07:02:59;;;;;;;4.75;3.30;;;;;;;32.84;65.62;100624.44;5055436;28;66727;-42
2023/07/31 07:05:49;;;;;;;4.68;2.90;;;;;;;32.82;65.42;100616.53;5055256;28;71179;-40
2023/07/31 07:08:40;;;;;;;3.95;3.13;;;;;;;32.87;65.30;100616.63;5057487;28;67363;-40
2023/07/31 07:11:30;;;;;;;7.60;2.88;;;;;;;32.89;65.66;100619.94;5055678;28;71486;-41
2023/07/31 07:14:20;;;;;;;4.60;2.90;;;;;;;32.90;65.41;100616.16;5054249;28;67310;-40
2023/07/31 07:17:10;;;;;;;4.53;2.88;;;;;;;32.93;65.09;100612.97;5051960;28;70771;-41
2023/07/31 07:20:03;;;;;;;4.63;3.50;;;;;;;32.96;65.14;100605.38;5056598;28;66148;-38
2023/07/31 07:22:53;;;;;;;7.15;3.78;;;;;;;32.93;65.16;100591.22;5055955;28;71459;-41
2023/07/31 07:25:47;;;;;;;7.38;4.05;;;;;;;32.97;64.89;100585.31;5049889;28;67504;-41
2023/07/31 07:28:38;;;;;;;4.25;3.80;;;;;;;32.96;65.35;100576.34;5044712;28;71147;-40
2023/07/31 07:31:28;;;;;;;5.85;3.97;;;;;;;33.04;65.00;100575.97;5054541;28;67550;-39
2023/07/31 07:34:18;;;;;;;6.30;4.20;;;;;;;33.02;65.01;100572.69;5051594;28;71035;-43
2023/07/31 07:37:08;;;;;;;5.90;4.03;;;;;;;33.09;64.62;100577.94;5058637;28;66614;-39
2023/07/31 07:39:58;;;;;;;5.47;4.25;;;;;;;33.09;64.80;100562.47;5054016;28;71087;-39
2023/07/31 07:42:48;;;;;;;7.07;4.43;;;;;;;33.10;64.86;100564.13;5049280;28;67656;-40
2023/07/31 07:45:38;;;;;;;7.20;4.18;;;;;;;33.13;64.81;100557.41;5041345;28;71114;-40
2023/07/31 07:48:29;;;;;;;9.27;4.85;;;;;;;33.13;65.00;100541.09;5045410;28;66969;-42
2023/07/31 07:51:19;;;;;;;7.10;3.90;;;;;;;33.08;64.61;100533.66;5040970;28;70446;-40
2023/07/31 07:54:09;;;;;;;7.45;4.28;;;;;;;33.02;64.61;100512.06;5050201;28;66641;-40
2023/07/31 07:56:59;;;;;;;4.20;3.78;;;;;;;33.15;64.72;100536.22;5058548;28;70527;-40
2023/07/31 07:59:49;;;;;;;4.88;4.28;;;;;;;33.16;64.70;100524.28;5050240;28;66767;-39
2023/07/31 08:02:40;;;;;;;7.85;4.78;;;;;;;33.17;64.93;100523.22;5053387;28;70294;-39
2023/07/31 08:05:33;;;;;;;5.43;4.88;;;;;;;33.19;64.73;100523.78;5056665;28;66564;-40
2023/07/31 08:08:23;;;;;;;7.97;5.05;;;;;;;33.19;64.71;100518.34;5054463;28;71104;-42
2023/07/31 08:11:13;;;;;;;7.65;4.60;;;;;;;33.22;64.73;100515.16;5057129;28;65415;-40
2023/07/31 08:14:03;;;;;;;6.57;5.10;;;;;;;33.22;64.61;100523.31;5054957;28;70300;-41
2023/07/31 08:16:53;;;;;;;8.82;6.40;;;;;;;33.24;64.53;100518.47;5050602;28;67265;-40
2023/07/31 08:19:44;;;;;;;9.68;6.03;;;;;;;33.25;64.37;100511.94;5052978;28;71198;-40
2023/07/31 08:22:34;;;;;;;16.48;6.88;;;;;;;33.25;64.04;100503.78;5059526;28;65265;-43
2023/07/31 08:25:25;;;;;;;10.73;6.63;;;;;;;33.24;64.40;100494.00;5055902;28;71240;-40
2023/07/31 08:28:15;;;;;;;9.73;6.10;;;;;;;33.24;64.38;100485.00;5054801;28;67690;-40
2023/07/31 08:31:05;;;;;;;7.00;6.40;;;;;;;33.26;64.08;100494.53;5049502;28;70954;-42
2023/07/31 08:33:56;;;;;;;8.02;6.43;;;;;;;33.14;64.04;100472.06;5058337;28;66133;-39
2023/07/31 08:36:46;;;;;;;7.78;6.97;;;;;;;33.11;64.31;100457.06;5059414;28;71078;-40
2023/07/31 08:39:41;;;;;;;9.75;6.10;;;;;;;33.28;64.44;100486.97;5062677;28;43360;-40
2023/07/31 08:42:32;;;;;;;9.15;6.68;;;;;;;33.29;64.83;100491.38;5051091;28;70772;-41
2023/07/31 08:45:22;;;;;;;10.70;6.97;;;;;;;33.31;64.46;100489.19;5059072;28;66887;-41
2023/07/31 08:48:12;;;;;;;7.97;6.55;;;;;;;33.27;64.09;100477.19;5059326;28;71453;-40
2023/07/31 08:51:03;;;;;;;7.55;6.43;;;;;;;33.26;64.38;100461.13;5052426;28;67177;-41
2023/07/31 08:53:54;;;;;;;6.88;6.25;;;;;;;32.70;64.46;100374.81;5056091;28;71008;-41
2023/07/31 08:56:45;;;;;;;10.20;6.80;;;;;;;33.31;64.47;100491.91;5052924;28;67029;-40
2023/07/31 08:59:36;;;;;;;8.15;6.95;;;;;;;33.15;64.62;100449.25;5051710;28;71674;-41
2023/07/31 09:02:43;;;;;;;8.87;6.93;;;;;;;32.85;64.41;100409.59;5055151;28;67267;-40
2023/07/31 09:05:33;;;;;;;9.23;6.55;;;;;;;33.31;64.52;100489.19;5054713;28;71134;-40
2023/07/31 09:08:27;;;;;;;6.95;5.90;;;;;;;33.33;64.24;100486.25;5054934;28;66810;-42
2023/07/31 09:11:17;;;;;;;8.45;6.32;;;;;;;33.25;64.51;100463.00;5055201;28;70452;-39
2023/07/31 09:14:10;;;;;;;7.25;6.03;;;;;;;32.90;64.35;100412.41;5055742;28;67047;-40
2023/07/31 09:17:00;;;;;;;9.93;6.35;;;;;;;33.32;64.59;100485.44;5058223;28;71114;-40
2023/07/31 09:19:52;;;;;;;8.93;6.40;;;;;;;33.33;64.55;100487.06;5052255;28;66874;-39
2023/07/31 09:22:43;;;;;;;7.93;6.07;;;;;;;33.36;64.47;100486.56;5060138;28;70227;-39
2023/07/31 09:25:34;;;;;;;6.55;5.82;;;;;;;33.34;64.76;100483.28;5059592;28;67421;-40
2023/07/31 09:28:32;;;;;;;8.68;6.43;;;;;;;32.84;64.80;100402.50;5055211;28;71177;-41
2023/07/31 09:31:43;;;;;;;8.25;6.03;;;;;;;33.12;64.67;100475.00;5052316;28;67245;-41
2023/07/31 09:34:39;;;;;;;11.88;6.28;;;;;;;33.28;64.92;100489.69;5053105;28;70495;-40
2023/07/31 09:37:30;;;;;;;7.68;5.93;;;;;;;33.32;64.86;100499.03;5051168;28;66688;-40
2023/07/31 09:40:31;;;;;;;6.75;6.15;;;;;;;33.31;65.01;100504.69;5058933;28;71058;-40
2023/07/31 09:43:22;;;;;;;6.45;5.18;;;;;;;33.33;64.77;100514.25;5056954;28;66644;-41
2023/07/31 09:46:15;;;;;;;8.60;5.93;;;;;;;33.31;64.89;100510.94;5050782;28;71260;-40
2023/07/31 09:49:05;;;;;;;8.13;5.60;;;;;;;33.30;64.94;100503.88;5052151;28;67071;-39
2023/07/31 09:51:56;;;;;;;8.38;5.93;;;;;;;33.30;65.06;100505.78;5051294;28;70239;-40
2023/07/31 09:54:46;;;;;;;5.55;4.82;;;;;;;33.31;65.06;100507.41;5047770;28;66395;-39
2023/07/31 09:57:44;;;;;;;6.97;5.22;;;;;;;33.30;65.35;100514.75;5056418;28;71530;-40
2023/07/31 10:00:35;;;;;;;8.88;5.55;;;;;;;33.26;65.02;100507.31;5050523;28;67264;-38
2023/07/31 10:03:26;;;;;;;10.80;5.80;;;;;;;33.29;65.25;100518.56;5033198;28;70486;-40
2023/07/31 10:06:19;;;;;;;10.43;5.93;;;;;;;32.76;64.94;100431.97;5055288;28;66583;-40
2023/07/31 10:09:12;;;;;;;9.13;5.97;;;;;;;33.26;65.14;100527.16;5050811;28;70439;-40
2023/07/31 10:12:06;;;;;;;10.23;5.63;;;;;;;33.16;65.11;100499.81;5042175;28;66547;-43
2023/07/31 10:14:56;;;;;;;6.53;5.43;;;;;;;33.26;65.00;100519.00;5058047;28;70470;-39
2023/07/31 10:17:50;;;;;;;8.68;4.93;;;;;;;33.25;65.17;100511.13;5058747;28;67573;-41
2023/07/31 10:20:41;;;;;;;9.15;5.20;;;;;;;33.24;65.28;100515.75;5059087;28;71121;-41
2023/07/31 10:23:32;;;;;;;8.75;4.95;;;;;;;33.17;65.35;100509.63;5056635;28;66909;-42
2023/07/31 10:26:25;;;;;;;8.48;5.30;;;;;;;33.24;65.48;100523.88;5049842;28;71021;-41
2023/07/31 10:29:17;;;;;;;8.63;5.28;;;;;;;32.77;65.47;100445.31;5059192;28;67338;-40
2023/07/31 10:32:11;;;;;;;7.60;5.55;;;;;;;33.21;65.15;100516.22;5058340;28;71200;-43
2023/07/31 10:35:04;;;;;;;8.10;6.10;;;;;;;33.21;65.32;100521.66;5057434;28;67215;-40
2023/07/31 10:37:54;;;;;;;10.68;5.25;;;;;;;33.14;65.45;100510.09;5053255;28;71117;-42
2023/07/31 10:40:45;;;;;;;8.13;5.68;;;;;;;33.17;65.33;100520.50;5059447;28;66428;-42
2023/07/31 10:43:36;;;;;;;6.07;5.25;;;;;;;33.18;65.26;100529.47;5058312;28;71209;-42
2023/07/31 10:46:29;;;;;;;6.82;5.25;;;;;;;33.16;65.37;100527.00;5043646;28;66351;-43
2023/07/31 10:49:22;;;;;;;6.13;5.03;;;;;;;33.02;65.46;100522.94;5051962;28;70325;-40
2023/07/31 10:52:14;;;;;;;5.05;4.50;;;;;;;32.17;65.51;100391.44;5057907;28;66834;-41
2023/07/31 10:55:30;;;;;;;5.75;5.18;;;;;;;33.02;65.87;100550.13;5057466;28;70879;-41
2023/07/31 10:58:22;;;;;;;12.18;5.30;;;;;;;33.06;65.59;100551.28;5057741;28;66693;-42
2023/07/31 11:01:11;;;;;;;;;;;;;;;32.76;67.25;100552.28;5058393;28;70572;-44
2023/07/31 11:04:11;;;;;;;8.38;4.80;;;;;;;32.08;66.18;100406.47;5057844;28;67781;-40
2023/07/31 11:07:04;;;;;;;7.35;5.10;;;;;;;32.97;65.92;100552.69;5049900;28;71669;-40
2023/07/31 11:09:55;;;;;;;6.60;5.93;;;;;;;33.02;66.01;100555.56;5058035;28;66444;-44
2023/07/31 11:12:46;;;;;;;9.35;5.00;;;;;;;32.59;66.25;100497.09;5053141;28;70518;-40
2023/07/31 11:15:36;;;;;;;6.88;5.30;;;;;;;32.86;66.25;100544.34;5053559;28;67461;-42
2023/07/31 11:18:29;;;;;;;6.43;4.60;;;;;;;32.94;66.50;100565.69;5060217;28;71740;-41
2023/07/31 11:21:22;;;;;;;7.97;5.47;;;;;;;32.76;66.06;100535.97;5042291;28;66516;-41
2023/07/31 11:24:13;;;;;;;7.32;4.93;;;;;;;32.94;66.04;100565.69;5056913;28;71414;-42
2023/07/31 11:27:08;;;;;;;7.15;5.00;;;;;;;32.37;66.09;100492.25;5057712;28;67496;-42
2023/07/31 11:30:03;;;;;;;6.65;4.47;;;;;;;32.92;66.49;100586.84;5057531;28;71323;-40
2023/07/31 11:32:53;;;;;;;9.43;5.20;;;;;;;32.91;66.18;100587.91;5041427;28;67394;-42
2023/07/31 11:35:49;;;;;;;8.15;5.05;;;;;;;32.66;66.49;100552.09;5058596;28;72257;-39
2023/07/31 11:38:39;;;;;;;9.57;5.20;;;;;;;32.88;66.32;100593.84;5059175;28;67254;-40
2023/07/31 11:41:30;;;;;;;5.00;4.53;;;;;;;32.75;66.48;100588.66;5057136;28;71087;-40
2023/07/31 11:44:19;;;;;;;6.22;5.13;;;;;;;32.45;66.41;100548.91;5050014;28;66972;-39
2023/07/31 11:47:17;;;;;;;5.60;4.82;;;;;;;32.84;66.71;100625.25;5047359;28;70312;-41
2023/07/31 11:50:11;;;;;;;7.53;5.03;;;;;;;32.82;66.41;100613.81;5052838;28;67236;-42
2023/07/31 11:53:08;;;;;;;6.25;5.10;;;;;;;32.43;66.80;100564.63;5052233;28;70630;-42
2023/07/31 11:56:01;;;;;;;5.53;4.93;;;;;;;32.77;66.84;100621.84;5054992;28;66883;-42
2023/07/31 11:58:57;;;;;;;7.63;5.20;;;;;;;32.78;66.78;100619.97;5057913;28;71107;-40
2023/07/31 12:01:50;;;;;;;5.28;4.78;;;;;;;32.78;66.66;100626.22;5058730;28;67340;-43
2023/07/31 12:04:40;;;;;;;11.20;5.40;;;;;;;32.77;67.12;100640.88;5056842;28;70556;-41
2023/07/31 12:07:48;;;;;;;8.18;5.68;;;;;;;32.23;67.27;100583.16;5057870;28;66645;-41
2023/07/31 12:10:40;;;;;;;6.03;5.20;;;;;;;32.72;66.98;100665.19;5055432;28;71166;-41
2023/07/31 12:13:32;;;;;;;5.75;4.90;;;;;;;31.94;67.10;100545.06;5060860;28;66366;-41
2023/07/31 12:16:26;;;;;;;;;;;;;;;32.36;68.84;100664.34;5054268;28;71158;-39
2023/07/31 12:19:19;;;;;;;6.53;4.75;;;;;;;32.65;67.24;100669.91;5058471;28;67677;-39
2023/07/31 12:22:14;;;;;;;5.75;4.80;;;;;;;32.03;67.55;100576.19;5054628;28;71168;-41
2023/07/31 12:25:05;;;;;;;7.18;4.80;;;;;;;32.66;67.05;100677.84;5054801;28;67236;-42
2023/07/31 12:27:55;;;;;;;6.00;5.03;;;;;;;32.55;67.21;100664.28;5055994;28;71186;-40
2023/07/31 12:30:46;;;;;;;6.45;4.80;;;;;;;32.08;67.34;100593.69;5058669;28;67312;-42
2023/07/31 12:33:38;;;;;;;7.82;5.07;;;;;;;32.61;67.48;100687.75;5053223;28;71087;-43
2023/07/31 12:36:32;;;;;;;7.22;5.15;;;;;;;32.58;67.52;100690.97;5059098;28;66616;-41
2023/07/31 12:39:22;;;;;;;8.10;5.72;;;;;;;32.58;67.65;100701.81;5053394;28;70666;-40
2023/07/31 12:42:12;;;;;;;5.95;5.03;;;;;;;32.58;67.50;100729.78;5047846;28;66563;-40
2023/07/31 12:45:03;;;;;;;6.65;5.22;;;;;;;32.49;67.52;100721.19;5047524;28;70498;-42
2023/07/31 12:47:54;;;;;;;7.32;4.82;;;;;;;32.55;67.60;100724.03;5047720;28;67417;-43
2023/07/31 12:50:44;;;;;;;5.63;4.72;;;;;;;32.51;67.64;100717.38;5044090;28;71357;-41
2023/07/31 12:53:34;;;;;;;6.50;5.03;;;;;;;32.47;67.79;100717.88;5058619;28;67334;-40
2023/07/31 12:56:24;;;;;;;8.35;4.80;;;;;;;32.51;67.99;100739.94;5054397;28;71318;-42
2023/07/31 12:59:15;;;;;;;4.72;4.30;;;;;;;32.17;70.63;100744.22;5055760;28;64877;-41
2023/07/31 13:02:05;;;;;;;5.32;4.82;;;;;;;32.01;71.70;100743.84;5059669;28;71301;-40
2023/07/31 13:04:56;;;;;;;6.75;5.30;;;;;;;31.52;72.31;100675.22;5054916;28;66523;-40
2023/07/31 13:07:46;;;;;;;10.82;5.55;;;;;;;31.95;72.62;100757.47;5051269;28;70346;-40
2023/07/31 13:10:39;;;;;;;8.75;5.40;;;;;;;31.91;73.18;100748.13;5059426;28;67154;-41
2023/07/31 13:13:32;;;;;;;8.68;5.40;;;;;;;32.16;70.63;100754.25;5050088;28;71100;-41
2023/07/31 13:16:22;;;;;;;5.40;4.60;;;;;;;31.85;70.42;100687.50;5046585;28;67804;-41